sensor_id;sensor_type;location;lat;lon;timestamp;P1;durP1;ratioP1;P2;durP2;ratioP2
50851;SDS011;43953;45.508;-122.806;2023-01-10T00:00:16;6.38;;;1.85;;
50851;SDS011;43953;45.508;-122.806;2023-01-10T00:00:48;7.60;;;2.38;;
50851;SDS011;43953;45.508;-122.806;2023-01-10T00:01:19;6.95;;;2.10;;
50851;SDS011;43953;45.508;-122.806;2023-01-10T00:01:51;7.07;;;2.35;;
50851;SDS011;43953;45.508;-122.806;2023-01-10T00:02:23;8.82;;;3.30;;
50851;SDS011;43953;45.508;-122.806;2023-01-10T00:02:54;12.10;;;5.28;;
50851;SDS011;43953;45.508;-122.806;2023-01-10T00:03:26;9.48;;;4.70;;
50851;SDS011;43953;45.508;-122.806;2023-01-10T00:03:58;8.75;;;3.92;;
50851;SDS011;43953;45.508;-122.806;2023-01-10T00:04:30;10.68;;;5.28;;
50851;SDS011;43953;45.508;-122.806;2023-01-10T00:05:01;8.25;;;3.63;;
50851;SDS011;43953;45.508;-122.806;2023-01-10T00:05:34;8.57;;;3.10;;
50851;SDS011;43953;45.508;-122.806;2023-01-10T00:06:06;6.53;;;2.88;;
50851;SDS011;43953;45.508;-122.806;2023-01-10T00:06:38;8.27;;;3.80;;
50851;SDS011;43953;45.508;-122.806;2023-01-10T00:07:10;7.75;;;3.42;;
50851;SDS011;43953;45.508;-122.806;2023-01-10T00:07:41;10.00;;;3.30;;
50851;SDS011;43953;45.508;-122.806;2023-01-10T00:08:14;9.27;;;3.40;;
50851;SDS011;43953;45.508;-122.806;2023-01-10T00:08:46;9.07;;;2.90;;
50851;SDS011;43953;45.508;-122.806;2023-01-10T00:09:18;8.45;;;3.65;;
50851;SDS011;43953;45.508;-122.806;2023-01-10T00:09:50;8.90;;;2.78;;
50851;SDS011;43953;45.508;-122.806;2023-01-10T00:10:21;6.70;;;3.22;;
50851;SDS011;43953;45.508;-122.806;2023-01-10T00:10:53;6.43;;;2.60;;
50851;SDS011;43953;45.508;-122.806;2023-01-10T00:11:25;7.85;;;2.88;;
50851;SDS011;43953;45.508;-122.806;2023-01-10T00:13:04;8.45;;;2.78;;
50851;SDS011;43953;45.508;-122.806;2023-01-10T00:13:54;7.28;;;2.78;;
50851;SDS011;43953;45.508;-122.806;2023-01-10T00:14:27;7.28;;;2.78;;
50851;SDS011;43953;45.508;-122.806;2023-01-10T00:14:59;9.32;;;3.03;;
50851;SDS011;43953;45.508;-122.806;2023-01-10T00:15:31;5.97;;;2.70;;
50851;SDS011;43953;45.508;-122.806;2023-01-10T00:16:07;6.57;;;2.47;;
50851;SDS011;43953;45.508;-122.806;2023-01-10T00:16:39;5.88;;;2.10;;
50851;SDS011;43953;45.508;-122.806;2023-01-10T00:17:12;7.72;;;3.00;;
50851;SDS011;43953;45.508;-122.806;2023-01-10T00:17:44;7.82;;;2.70;;
50851;SDS011;43953;45.508;-122.806;2023-01-10T00:18:15;5.80;;;2.40;;
50851;SDS011;43953;45.508;-122.806;2023-01-10T00:18:47;7.78;;;2.70;;
50851;SDS011;43953;45.508;-122.806;2023-01-10T00:19:19;7.10;;;2.50;;
50851;SDS011;43953;45.508;-122.806;2023-01-10T00:19:51;6.28;;;2.30;;
50851;SDS011;43953;45.508;-122.806;2023-01-10T00:20:22;8.13;;;2.95;;
50851;SDS011;43953;45.508;-122.806;2023-01-10T00:20:54;6.60;;;2.15;;
50851;SDS011;43953;45.508;-122.806;2023-01-10T00:21:26;7.38;;;2.67;;
50851;SDS011;43953;45.508;-122.806;2023-01-10T00:21:58;6.47;;;2.58;;
50851;SDS011;43953;45.508;-122.806;2023-01-10T00:22:37;4.97;;;1.92;;
50851;SDS011;43953;45.508;-122.806;2023-01-10T00:23:08;5.65;;;2.33;;
50851;SDS011;43953;45.508;-122.806;2023-01-10T00:23:41;5.25;;;2.22;;
50851;SDS011;43953;45.508;-122.806;2023-01-10T00:24:14;7.63;;;2.30;;
50851;SDS011;43953;45.508;-122.806;2023-01-10T00:24:48;6.45;;;2.60;;
50851;SDS011;43953;45.508;-122.806;2023-01-10T00:25:20;7.45;;;2.33;;
50851;SDS011;43953;45.508;-122.806;2023-01-10T00:25:52;5.75;;;2.65;;
50851;SDS011;43953;45.508;-122.806;2023-01-10T00:26:24;5.78;;;2.30;;
50851;SDS011;43953;45.508;-122.806;2023-01-10T00:26:55;6.78;;;2.65;;
50851;SDS011;43953;45.508;-122.806;2023-01-10T00:27:27;6.22;;;2.55;;
50851;SDS011;43953;45.508;-122.806;2023-01-10T00:27:59;6.20;;;2.22;;
50851;SDS011;43953;45.508;-122.806;2023-01-10T00:28:50;5.03;;;2.42;;
50851;SDS011;43953;45.508;-122.806;2023-01-10T00:29:25;6.90;;;2.30;;
50851;SDS011;43953;45.508;-122.806;2023-01-10T00:29:58;6.85;;;2.22;;
50851;SDS011;43953;45.508;-122.806;2023-01-10T00:30:34;7.03;;;2.30;;
50851;SDS011;43953;45.508;-122.806;2023-01-10T00:31:09;5.13;;;2.10;;
50851;SDS011;43953;45.508;-122.806;2023-01-10T00:31:41;6.28;;;2.35;;
50851;SDS011;43953;45.508;-122.806;2023-01-10T00:32:13;6.05;;;2.08;;
50851;SDS011;43953;45.508;-122.806;2023-01-10T00:32:45;4.57;;;2.00;;
50851;SDS011;43953;45.508;-122.806;2023-01-10T00:33:16;8.18;;;2.20;;
50851;SDS011;43953;45.508;-122.806;2023-01-10T00:33:49;4.60;;;1.95;;
50851;SDS011;43953;45.508;-122.806;2023-01-10T00:34:21;5.78;;;1.83;;
50851;SDS011;43953;45.508;-122.806;2023-01-10T00:34:53;7.78;;;2.13;;
50851;SDS011;43953;45.508;-122.806;2023-01-10T00:35:25;7.80;;;2.22;;
50851;SDS011;43953;45.508;-122.806;2023-01-10T00:35:57;4.10;;;1.85;;
50851;SDS011;43953;45.508;-122.806;2023-01-10T00:36:32;5.05;;;2.25;;
50851;SDS011;43953;45.508;-122.806;2023-01-10T00:37:04;7.53;;;2.25;;
50851;SDS011;43953;45.508;-122.806;2023-01-10T00:37:36;6.00;;;2.30;;
50851;SDS011;43953;45.508;-122.806;2023-01-10T00:38:09;6.47;;;2.10;;
50851;SDS011;43953;45.508;-122.806;2023-01-10T00:38:41;5.22;;;1.80;;
50851;SDS011;43953;45.508;-122.806;2023-01-10T00:39:13;6.80;;;2.10;;
50851;SDS011;43953;45.508;-122.806;2023-01-10T00:39:45;5.72;;;2.20;;
50851;SDS011;43953;45.508;-122.806;2023-01-10T00:40:17;6.45;;;1.90;;
50851;SDS011;43953;45.508;-122.806;2023-01-10T00:40:49;7.63;;;2.20;;
50851;SDS011;43953;45.508;-122.806;2023-01-10T00:41:21;6.70;;;2.10;;
50851;SDS011;43953;45.508;-122.806;2023-01-10T00:42:10;6.88;;;1.92;;
50851;SDS011;43953;45.508;-122.806;2023-01-10T00:43:00;4.63;;;1.80;;
50851;SDS011;43953;45.508;-122.806;2023-01-10T00:43:50;8.57;;;2.30;;
50851;SDS011;43953;45.508;-122.806;2023-01-10T00:44:28;6.50;;;1.85;;
50851;SDS011;43953;45.508;-122.806;2023-01-10T00:45:00;4.40;;;2.00;;
50851;SDS011;43953;45.508;-122.806;2023-01-10T00:45:32;7.65;;;2.22;;
50851;SDS011;43953;45.508;-122.806;2023-01-10T00:46:03;8.68;;;2.33;;
50851;SDS011;43953;45.508;-122.806;2023-01-10T00:46:35;6.80;;;1.95;;
50851;SDS011;43953;45.508;-122.806;2023-01-10T00:47:07;7.45;;;2.03;;
50851;SDS011;43953;45.508;-122.806;2023-01-10T00:47:39;6.90;;;2.15;;
50851;SDS011;43953;45.508;-122.806;2023-01-10T00:48:11;7.68;;;2.05;;
50851;SDS011;43953;45.508;-122.806;2023-01-10T00:48:43;4.53;;;2.10;;
50851;SDS011;43953;45.508;-122.806;2023-01-10T00:49:15;6.88;;;2.10;;
50851;SDS011;43953;45.508;-122.806;2023-01-10T00:49:47;7.50;;;2.00;;
50851;SDS011;43953;45.508;-122.806;2023-01-10T00:50:19;7.20;;;2.15;;
50851;SDS011;43953;45.508;-122.806;2023-01-10T00:50:50;6.50;;;1.73;;
50851;SDS011;43953;45.508;-122.806;2023-01-10T00:51:22;6.75;;;2.20;;
50851;SDS011;43953;45.508;-122.806;2023-01-10T00:51:54;5.60;;;1.42;;
50851;SDS011;43953;45.508;-122.806;2023-01-10T00:52:29;6.40;;;1.63;;
50851;SDS011;43953;45.508;-122.806;2023-01-10T00:53:01;5.63;;;1.80;;
50851;SDS011;43953;45.508;-122.806;2023-01-10T00:53:32;4.50;;;1.70;;
50851;SDS011;43953;45.508;-122.806;2023-01-10T00:54:04;4.80;;;1.90;;
50851;SDS011;43953;45.508;-122.806;2023-01-10T00:54:36;6.53;;;1.75;;
50851;SDS011;43953;45.508;-122.806;2023-01-10T00:55:08;5.15;;;1.95;;
50851;SDS011;43953;45.508;-122.806;2023-01-10T00:55:40;4.65;;;1.85;;
50851;SDS011;43953;45.508;-122.806;2023-01-10T00:56:11;6.47;;;1.63;;
50851;SDS011;43953;45.508;-122.806;2023-01-10T00:56:43;6.07;;;1.92;;
50851;SDS011;43953;45.508;-122.806;2023-01-10T00:57:15;5.15;;;2.00;;
50851;SDS011;43953;45.508;-122.806;2023-01-10T00:57:46;5.00;;;1.67;;
50851;SDS011;43953;45.508;-122.806;2023-01-10T00:58:18;6.60;;;2.13;;
50851;SDS011;43953;45.508;-122.806;2023-01-10T00:58:50;6.95;;;1.77;;
50851;SDS011;43953;45.508;-122.806;2023-01-10T00:59:22;5.13;;;1.60;;
50851;SDS011;43953;45.508;-122.806;2023-01-10T00:59:54;7.03;;;2.00;;
50851;SDS011;43953;45.508;-122.806;2023-01-10T01:00:25;8.32;;;1.95;;
50851;SDS011;43953;45.508;-122.806;2023-01-10T01:00:57;7.00;;;1.95;;
50851;SDS011;43953;45.508;-122.806;2023-01-10T01:01:29;5.60;;;1.70;;
50851;SDS011;43953;45.508;-122.806;2023-01-10T01:02:01;5.32;;;2.03;;
50851;SDS011;43953;45.508;-122.806;2023-01-10T01:02:33;4.68;;;1.90;;
50851;SDS011;43953;45.508;-122.806;2023-01-10T01:03:05;6.63;;;1.90;;
50851;SDS011;43953;45.508;-122.806;2023-01-10T01:03:38;6.88;;;1.85;;
50851;SDS011;43953;45.508;-122.806;2023-01-10T01:04:09;6.40;;;2.28;;
50851;SDS011;43953;45.508;-122.806;2023-01-10T01:04:41;7.95;;;2.40;;
50851;SDS011;43953;45.508;-122.806;2023-01-10T01:05:13;5.07;;;1.55;;
50851;SDS011;43953;45.508;-122.806;2023-01-10T01:05:45;5.07;;;1.83;;
50851;SDS011;43953;45.508;-122.806;2023-01-10T01:06:18;6.22;;;1.70;;
50851;SDS011;43953;45.508;-122.806;2023-01-10T01:06:50;6.30;;;2.15;;
50851;SDS011;43953;45.508;-122.806;2023-01-10T01:07:22;7.00;;;1.90;;
50851;SDS011;43953;45.508;-122.806;2023-01-10T01:07:53;5.40;;;1.73;;
50851;SDS011;43953;45.508;-122.806;2023-01-10T01:08:25;5.55;;;1.88;;
50851;SDS011;43953;45.508;-122.806;2023-01-10T01:08:57;5.70;;;1.80;;
50851;SDS011;43953;45.508;-122.806;2023-01-10T01:09:29;6.55;;;1.92;;
50851;SDS011;43953;45.508;-122.806;2023-01-10T01:10:01;5.85;;;1.95;;
50851;SDS011;43953;45.508;-122.806;2023-01-10T01:11:22;7.43;;;2.17;;
50851;SDS011;43953;45.508;-122.806;2023-01-10T01:11:54;5.05;;;2.00;;
50851;SDS011;43953;45.508;-122.806;2023-01-10T01:12:26;6.25;;;2.00;;
50851;SDS011;43953;45.508;-122.806;2023-01-10T01:13:04;5.05;;;1.75;;
50851;SDS011;43953;45.508;-122.806;2023-01-10T01:13:37;9.10;;;2.00;;
50851;SDS011;43953;45.508;-122.806;2023-01-10T01:14:09;6.22;;;1.90;;
50851;SDS011;43953;45.508;-122.806;2023-01-10T01:14:41;5.10;;;1.80;;
50851;SDS011;43953;45.508;-122.806;2023-01-10T01:15:13;6.32;;;2.50;;
50851;SDS011;43953;45.508;-122.806;2023-01-10T01:15:45;7.60;;;2.08;;
50851;SDS011;43953;45.508;-122.806;2023-01-10T01:16:18;6.25;;;1.73;;
50851;SDS011;43953;45.508;-122.806;2023-01-10T01:16:49;5.15;;;1.85;;
50851;SDS011;43953;45.508;-122.806;2023-01-10T01:17:21;5.63;;;1.58;;
50851;SDS011;43953;45.508;-122.806;2023-01-10T01:17:53;6.07;;;2.13;;
50851;SDS011;43953;45.508;-122.806;2023-01-10T01:18:25;5.60;;;2.03;;
50851;SDS011;43953;45.508;-122.806;2023-01-10T01:18:57;6.05;;;2.47;;
50851;SDS011;43953;45.508;-122.806;2023-01-10T01:19:29;4.05;;;1.50;;
50851;SDS011;43953;45.508;-122.806;2023-01-10T01:20:00;7.70;;;2.20;;
50851;SDS011;43953;45.508;-122.806;2023-01-10T01:20:32;6.13;;;1.80;;
50851;SDS011;43953;45.508;-122.806;2023-01-10T01:21:04;4.35;;;2.00;;
50851;SDS011;43953;45.508;-122.806;2023-01-10T01:21:38;6.40;;;1.90;;
50851;SDS011;43953;45.508;-122.806;2023-01-10T01:22:09;9.45;;;2.25;;
50851;SDS011;43953;45.508;-122.806;2023-01-10T01:22:41;6.40;;;1.67;;
50851;SDS011;43953;45.508;-122.806;2023-01-10T01:23:13;6.35;;;1.95;;
50851;SDS011;43953;45.508;-122.806;2023-01-10T01:23:45;4.57;;;1.80;;
50851;SDS011;43953;45.508;-122.806;2023-01-10T01:24:17;4.57;;;1.63;;
50851;SDS011;43953;45.508;-122.806;2023-01-10T01:24:48;8.10;;;2.35;;
50851;SDS011;43953;45.508;-122.806;2023-01-10T01:25:20;6.07;;;2.22;;
50851;SDS011;43953;45.508;-122.806;2023-01-10T01:25:52;10.20;;;2.00;;
50851;SDS011;43953;45.508;-122.806;2023-01-10T01:26:24;7.18;;;2.08;;
50851;SDS011;43953;45.508;-122.806;2023-01-10T01:26:56;7.57;;;1.90;;
50851;SDS011;43953;45.508;-122.806;2023-01-10T01:27:28;5.30;;;1.75;;
50851;SDS011;43953;45.508;-122.806;2023-01-10T01:27:59;5.00;;;1.85;;
50851;SDS011;43953;45.508;-122.806;2023-01-10T01:28:31;9.75;;;2.28;;
50851;SDS011;43953;45.508;-122.806;2023-01-10T01:29:03;4.70;;;2.03;;
50851;SDS011;43953;45.508;-122.806;2023-01-10T01:29:35;6.72;;;2.13;;
50851;SDS011;43953;45.508;-122.806;2023-01-10T01:30:07;6.68;;;2.35;;
50851;SDS011;43953;45.508;-122.806;2023-01-10T01:30:40;7.28;;;2.00;;
50851;SDS011;43953;45.508;-122.806;2023-01-10T01:31:11;4.38;;;1.55;;
50851;SDS011;43953;45.508;-122.806;2023-01-10T01:31:43;8.98;;;2.38;;
50851;SDS011;43953;45.508;-122.806;2023-01-10T01:32:15;6.03;;;2.08;;
50851;SDS011;43953;45.508;-122.806;2023-01-10T01:32:47;5.97;;;1.92;;
50851;SDS011;43953;45.508;-122.806;2023-01-10T01:33:19;8.30;;;2.85;;
50851;SDS011;43953;45.508;-122.806;2023-01-10T01:33:50;7.25;;;2.30;;
50851;SDS011;43953;45.508;-122.806;2023-01-10T01:34:22;6.70;;;2.10;;
50851;SDS011;43953;45.508;-122.806;2023-01-10T01:34:54;6.55;;;2.42;;
50851;SDS011;43953;45.508;-122.806;2023-01-10T01:35:26;9.48;;;2.28;;
50851;SDS011;43953;45.508;-122.806;2023-01-10T01:35:57;6.95;;;2.08;;
50851;SDS011;43953;45.508;-122.806;2023-01-10T01:36:29;7.38;;;2.28;;
50851;SDS011;43953;45.508;-122.806;2023-01-10T01:37:01;7.70;;;2.00;;
50851;SDS011;43953;45.508;-122.806;2023-01-10T01:37:32;6.80;;;2.45;;
50851;SDS011;43953;45.508;-122.806;2023-01-10T01:38:04;7.53;;;2.10;;
50851;SDS011;43953;45.508;-122.806;2023-01-10T01:38:36;9.10;;;2.70;;
50851;SDS011;43953;45.508;-122.806;2023-01-10T01:39:09;7.13;;;2.08;;
50851;SDS011;43953;45.508;-122.806;2023-01-10T01:39:40;8.25;;;2.30;;
50851;SDS011;43953;45.508;-122.806;2023-01-10T01:40:13;10.70;;;2.75;;
50851;SDS011;43953;45.508;-122.806;2023-01-10T01:40:47;6.40;;;2.33;;
50851;SDS011;43953;45.508;-122.806;2023-01-10T01:41:18;8.65;;;2.17;;
50851;SDS011;43953;45.508;-122.806;2023-01-10T01:42:16;8.65;;;2.67;;
50851;SDS011;43953;45.508;-122.806;2023-01-10T01:42:54;5.78;;;2.17;;
50851;SDS011;43953;45.508;-122.806;2023-01-10T01:43:28;7.28;;;2.40;;
50851;SDS011;43953;45.508;-122.806;2023-01-10T01:44:10;5.63;;;2.67;;
50851;SDS011;43953;45.508;-122.806;2023-01-10T01:45:02;5.85;;;2.17;;
50851;SDS011;43953;45.508;-122.806;2023-01-10T01:45:41;7.10;;;2.35;;
50851;SDS011;43953;45.508;-122.806;2023-01-10T01:46:12;7.75;;;2.20;;
50851;SDS011;43953;45.508;-122.806;2023-01-10T01:46:45;6.53;;;2.17;;
50851;SDS011;43953;45.508;-122.806;2023-01-10T01:47:23;6.78;;;2.20;;
50851;SDS011;43953;45.508;-122.806;2023-01-10T01:48:07;8.98;;;2.22;;
50851;SDS011;43953;45.508;-122.806;2023-01-10T01:48:40;6.75;;;2.22;;
50851;SDS011;43953;45.508;-122.806;2023-01-10T01:49:15;7.60;;;2.10;;
50851;SDS011;43953;45.508;-122.806;2023-01-10T01:49:51;6.35;;;2.38;;
50851;SDS011;43953;45.508;-122.806;2023-01-10T01:51:21;6.70;;;1.90;;
50851;SDS011;43953;45.508;-122.806;2023-01-10T01:51:58;8.07;;;2.30;;
50851;SDS011;43953;45.508;-122.806;2023-01-10T01:52:35;5.43;;;2.00;;
50851;SDS011;43953;45.508;-122.806;2023-01-10T01:53:12;7.32;;;2.38;;
50851;SDS011;43953;45.508;-122.806;2023-01-10T01:53:49;7.05;;;2.40;;
50851;SDS011;43953;45.508;-122.806;2023-01-10T01:54:33;7.32;;;2.30;;
50851;SDS011;43953;45.508;-122.806;2023-01-10T01:55:05;9.00;;;2.58;;
50851;SDS011;43953;45.508;-122.806;2023-01-10T01:55:37;8.02;;;2.95;;
50851;SDS011;43953;45.508;-122.806;2023-01-10T01:56:12;7.93;;;2.45;;
50851;SDS011;43953;45.508;-122.806;2023-01-10T01:56:53;9.13;;;3.67;;
50851;SDS011;43953;45.508;-122.806;2023-01-10T01:57:31;8.43;;;2.47;;
50851;SDS011;43953;45.508;-122.806;2023-01-10T01:58:07;8.48;;;3.03;;
50851;SDS011;43953;45.508;-122.806;2023-01-10T01:58:47;7.35;;;3.13;;
50851;SDS011;43953;45.508;-122.806;2023-01-10T01:59:43;8.75;;;2.80;;
50851;SDS011;43953;45.508;-122.806;2023-01-10T02:00:18;8.23;;;2.78;;
50851;SDS011;43953;45.508;-122.806;2023-01-10T02:00:50;8.85;;;2.55;;
50851;SDS011;43953;45.508;-122.806;2023-01-10T02:01:21;7.80;;;3.30;;
50851;SDS011;43953;45.508;-122.806;2023-01-10T02:01:55;7.57;;;2.50;;
50851;SDS011;43953;45.508;-122.806;2023-01-10T02:02:32;9.15;;;3.40;;
50851;SDS011;43953;45.508;-122.806;2023-01-10T02:03:09;8.38;;;3.08;;
50851;SDS011;43953;45.508;-122.806;2023-01-10T02:03:43;6.60;;;2.78;;
50851;SDS011;43953;45.508;-122.806;2023-01-10T02:04:19;6.88;;;2.67;;
50851;SDS011;43953;45.508;-122.806;2023-01-10T02:04:58;9.20;;;3.20;;
50851;SDS011;43953;45.508;-122.806;2023-01-10T02:05:34;7.53;;;2.63;;
50851;SDS011;43953;45.508;-122.806;2023-01-10T02:06:10;9.93;;;3.13;;
50851;SDS011;43953;45.508;-122.806;2023-01-10T02:06:43;6.43;;;2.70;;
50851;SDS011;43953;45.508;-122.806;2023-01-10T02:07:17;6.45;;;2.30;;
50851;SDS011;43953;45.508;-122.806;2023-01-10T02:07:51;8.82;;;3.30;;
50851;SDS011;43953;45.508;-122.806;2023-01-10T02:08:26;5.63;;;2.55;;
50851;SDS011;43953;45.508;-122.806;2023-01-10T02:09:01;6.95;;;2.75;;
50851;SDS011;43953;45.508;-122.806;2023-01-10T02:11:38;5.80;;;2.40;;
50851;SDS011;43953;45.508;-122.806;2023-01-10T02:12:10;6.03;;;2.97;;
50851;SDS011;43953;45.508;-122.806;2023-01-10T02:12:44;8.73;;;3.00;;
50851;SDS011;43953;45.508;-122.806;2023-01-10T02:13:20;8.65;;;2.55;;
50851;SDS011;43953;45.508;-122.806;2023-01-10T02:13:55;5.00;;;2.42;;
50851;SDS011;43953;45.508;-122.806;2023-01-10T02:14:28;8.98;;;2.72;;
50851;SDS011;43953;45.508;-122.806;2023-01-10T02:15:02;6.93;;;2.30;;
50851;SDS011;43953;45.508;-122.806;2023-01-10T02:15:34;7.72;;;2.25;;
50851;SDS011;43953;45.508;-122.806;2023-01-10T02:16:06;7.30;;;2.40;;
50851;SDS011;43953;45.508;-122.806;2023-01-10T02:16:38;7.88;;;2.40;;
50851;SDS011;43953;45.508;-122.806;2023-01-10T02:17:10;9.98;;;2.97;;
50851;SDS011;43953;45.508;-122.806;2023-01-10T02:17:42;6.05;;;2.35;;
50851;SDS011;43953;45.508;-122.806;2023-01-10T02:18:17;9.35;;;2.38;;
50851;SDS011;43953;45.508;-122.806;2023-01-10T02:18:50;7.60;;;2.58;;
50851;SDS011;43953;45.508;-122.806;2023-01-10T02:19:23;5.90;;;2.35;;
50851;SDS011;43953;45.508;-122.806;2023-01-10T02:20:00;6.88;;;2.47;;
50851;SDS011;43953;45.508;-122.806;2023-01-10T02:20:46;5.95;;;2.40;;
50851;SDS011;43953;45.508;-122.806;2023-01-10T02:22:33;7.25;;;2.10;;
50851;SDS011;43953;45.508;-122.806;2023-01-10T02:24:33;7.15;;;2.08;;
50851;SDS011;43953;45.508;-122.806;2023-01-10T02:27:21;7.97;;;2.25;;
50851;SDS011;43953;45.508;-122.806;2023-01-10T02:30:27;6.60;;;2.00;;
50851;SDS011;43953;45.508;-122.806;2023-01-10T02:32:57;6.78;;;2.25;;
50851;SDS011;43953;45.508;-122.806;2023-01-10T02:34:54;7.80;;;2.45;;
50851;SDS011;43953;45.508;-122.806;2023-01-10T02:36:54;6.38;;;2.75;;
50851;SDS011;43953;45.508;-122.806;2023-01-10T02:41:18;4.82;;;1.90;;
50851;SDS011;43953;45.508;-122.806;2023-01-10T02:42:06;6.32;;;2.00;;
50851;SDS011;43953;45.508;-122.806;2023-01-10T02:42:42;4.80;;;2.08;;
50851;SDS011;43953;45.508;-122.806;2023-01-10T02:43:22;6.93;;;2.13;;
50851;SDS011;43953;45.508;-122.806;2023-01-10T02:44:03;6.53;;;1.83;;
50851;SDS011;43953;45.508;-122.806;2023-01-10T02:45:32;6.78;;;2.20;;
50851;SDS011;43953;45.508;-122.806;2023-01-10T02:46:14;5.22;;;2.05;;
50851;SDS011;43953;45.508;-122.806;2023-01-10T02:46:54;6.82;;;2.30;;
50851;SDS011;43953;45.508;-122.806;2023-01-10T02:47:33;8.63;;;2.25;;
50851;SDS011;43953;45.508;-122.806;2023-01-10T02:48:06;8.45;;;2.75;;
50851;SDS011;43953;45.508;-122.806;2023-01-10T02:48:38;6.50;;;2.30;;
50851;SDS011;43953;45.508;-122.806;2023-01-10T02:49:10;5.45;;;2.10;;
50851;SDS011;43953;45.508;-122.806;2023-01-10T02:49:42;9.05;;;2.40;;
50851;SDS011;43953;45.508;-122.806;2023-01-10T02:51:18;5.22;;;2.40;;
50851;SDS011;43953;45.508;-122.806;2023-01-10T02:51:52;6.03;;;2.20;;
50851;SDS011;43953;45.508;-122.806;2023-01-10T02:52:25;7.05;;;2.42;;
50851;SDS011;43953;45.508;-122.806;2023-01-10T02:53:05;7.85;;;2.75;;
50851;SDS011;43953;45.508;-122.806;2023-01-10T02:53:46;5.03;;;2.47;;
50851;SDS011;43953;45.508;-122.806;2023-01-10T02:54:26;7.57;;;2.00;;
50851;SDS011;43953;45.508;-122.806;2023-01-10T02:55:00;5.53;;;1.90;;
50851;SDS011;43953;45.508;-122.806;2023-01-10T02:55:46;7.15;;;2.10;;
50851;SDS011;43953;45.508;-122.806;2023-01-10T02:59:37;13.13;;;2.88;;
50851;SDS011;43953;45.508;-122.806;2023-01-10T03:01:00;5.60;;;1.92;;
50851;SDS011;43953;45.508;-122.806;2023-01-10T03:03:01;5.57;;;2.20;;
50851;SDS011;43953;45.508;-122.806;2023-01-10T03:04:19;7.72;;;2.20;;
50851;SDS011;43953;45.508;-122.806;2023-01-10T03:05:45;6.20;;;2.28;;
50851;SDS011;43953;45.508;-122.806;2023-01-10T03:07:07;5.38;;;2.08;;
50851;SDS011;43953;45.508;-122.806;2023-01-10T03:10:20;4.93;;;2.05;;
50851;SDS011;43953;45.508;-122.806;2023-01-10T03:10:59;7.07;;;2.17;;
50851;SDS011;43953;45.508;-122.806;2023-01-10T03:11:33;4.35;;;1.95;;
50851;SDS011;43953;45.508;-122.806;2023-01-10T03:13:22;7.13;;;2.05;;
50851;SDS011;43953;45.508;-122.806;2023-01-10T03:13:57;6.63;;;2.28;;
50851;SDS011;43953;45.508;-122.806;2023-01-10T03:14:33;6.20;;;2.28;;
50851;SDS011;43953;45.508;-122.806;2023-01-10T03:15:08;4.47;;;1.63;;
50851;SDS011;43953;45.508;-122.806;2023-01-10T03:15:44;6.78;;;1.92;;
50851;SDS011;43953;45.508;-122.806;2023-01-10T03:16:19;7.45;;;2.63;;
50851;SDS011;43953;45.508;-122.806;2023-01-10T03:16:58;5.82;;;2.05;;
50851;SDS011;43953;45.508;-122.806;2023-01-10T03:17:34;5.18;;;1.95;;
50851;SDS011;43953;45.508;-122.806;2023-01-10T03:18:15;4.97;;;1.77;;
50851;SDS011;43953;45.508;-122.806;2023-01-10T03:18:55;6.72;;;2.13;;
50851;SDS011;43953;45.508;-122.806;2023-01-10T03:19:32;7.05;;;2.15;;
50851;SDS011;43953;45.508;-122.806;2023-01-10T03:20:08;7.00;;;2.47;;
50851;SDS011;43953;45.508;-122.806;2023-01-10T03:20:41;6.63;;;2.22;;
50851;SDS011;43953;45.508;-122.806;2023-01-10T03:21:15;4.47;;;1.75;;
50851;SDS011;43953;45.508;-122.806;2023-01-10T03:21:52;3.28;;;1.80;;
50851;SDS011;43953;45.508;-122.806;2023-01-10T03:22:28;4.05;;;1.92;;
50851;SDS011;43953;45.508;-122.806;2023-01-10T03:23:03;6.57;;;2.05;;
50851;SDS011;43953;45.508;-122.806;2023-01-10T03:23:36;3.53;;;1.52;;
50851;SDS011;43953;45.508;-122.806;2023-01-10T03:24:15;7.45;;;1.90;;
50851;SDS011;43953;45.508;-122.806;2023-01-10T03:24:48;6.30;;;1.90;;
50851;SDS011;43953;45.508;-122.806;2023-01-10T03:25:25;8.52;;;2.38;;
50851;SDS011;43953;45.508;-122.806;2023-01-10T03:26:04;7.20;;;2.40;;
50851;SDS011;43953;45.508;-122.806;2023-01-10T03:29:04;5.75;;;1.95;;
50851;SDS011;43953;45.508;-122.806;2023-01-10T03:30:00;7.72;;;1.80;;
50851;SDS011;43953;45.508;-122.806;2023-01-10T03:31:27;4.10;;;1.95;;
50851;SDS011;43953;45.508;-122.806;2023-01-10T03:32:06;5.65;;;2.17;;
50851;SDS011;43953;45.508;-122.806;2023-01-10T03:32:41;5.88;;;2.10;;
50851;SDS011;43953;45.508;-122.806;2023-01-10T03:33:14;6.00;;;2.00;;
50851;SDS011;43953;45.508;-122.806;2023-01-10T03:33:51;6.38;;;1.80;;
50851;SDS011;43953;45.508;-122.806;2023-01-10T03:34:22;5.90;;;2.10;;
50851;SDS011;43953;45.508;-122.806;2023-01-10T03:34:56;7.20;;;2.25;;
50851;SDS011;43953;45.508;-122.806;2023-01-10T03:35:38;7.07;;;2.05;;
50851;SDS011;43953;45.508;-122.806;2023-01-10T03:36:29;7.07;;;2.15;;
50851;SDS011;43953;45.508;-122.806;2023-01-10T03:38:14;4.03;;;2.05;;
50851;SDS011;43953;45.508;-122.806;2023-01-10T03:39:17;6.50;;;2.10;;
50851;SDS011;43953;45.508;-122.806;2023-01-10T03:40:26;5.18;;;2.30;;
50851;SDS011;43953;45.508;-122.806;2023-01-10T03:41:08;4.10;;;1.92;;
50851;SDS011;43953;45.508;-122.806;2023-01-10T03:42:27;4.10;;;2.13;;
50851;SDS011;43953;45.508;-122.806;2023-01-10T03:43:30;9.32;;;2.97;;
50851;SDS011;43953;45.508;-122.806;2023-01-10T03:45:23;6.20;;;2.28;;
50851;SDS011;43953;45.508;-122.806;2023-01-10T03:46:11;5.35;;;2.30;;
50851;SDS011;43953;45.508;-122.806;2023-01-10T03:48:15;8.07;;;2.70;;
50851;SDS011;43953;45.508;-122.806;2023-01-10T03:48:48;4.95;;;2.13;;
50851;SDS011;43953;45.508;-122.806;2023-01-10T03:49:21;6.13;;;2.35;;
50851;SDS011;43953;45.508;-122.806;2023-01-10T03:50:03;5.57;;;2.53;;
50851;SDS011;43953;45.508;-122.806;2023-01-10T03:50:37;5.65;;;2.42;;
50851;SDS011;43953;45.508;-122.806;2023-01-10T03:51:10;5.90;;;2.50;;
50851;SDS011;43953;45.508;-122.806;2023-01-10T03:51:43;5.55;;;2.38;;
50851;SDS011;43953;45.508;-122.806;2023-01-10T03:52:15;7.13;;;2.72;;
50851;SDS011;43953;45.508;-122.806;2023-01-10T03:52:49;5.30;;;2.45;;
50851;SDS011;43953;45.508;-122.806;2023-01-10T03:53:20;7.05;;;2.80;;
50851;SDS011;43953;45.508;-122.806;2023-01-10T03:53:52;7.78;;;2.90;;
50851;SDS011;43953;45.508;-122.806;2023-01-10T03:54:24;6.13;;;2.33;;
50851;SDS011;43953;45.508;-122.806;2023-01-10T03:54:56;6.32;;;2.60;;
50851;SDS011;43953;45.508;-122.806;2023-01-10T03:55:28;7.43;;;2.58;;
50851;SDS011;43953;45.508;-122.806;2023-01-10T03:56:02;8.70;;;3.22;;
50851;SDS011;43953;45.508;-122.806;2023-01-10T03:56:44;6.30;;;2.67;;
50851;SDS011;43953;45.508;-122.806;2023-01-10T03:57:18;6.22;;;2.67;;
50851;SDS011;43953;45.508;-122.806;2023-01-10T03:57:51;5.15;;;2.47;;
50851;SDS011;43953;45.508;-122.806;2023-01-10T03:58:23;6.32;;;2.35;;
50851;SDS011;43953;45.508;-122.806;2023-01-10T03:58:55;4.65;;;2.22;;
50851;SDS011;43953;45.508;-122.806;2023-01-10T03:59:26;5.93;;;2.90;;
50851;SDS011;43953;45.508;-122.806;2023-01-10T03:59:59;6.15;;;2.50;;
50851;SDS011;43953;45.508;-122.806;2023-01-10T04:00:31;7.10;;;3.47;;
50851;SDS011;43953;45.508;-122.806;2023-01-10T04:01:03;5.75;;;2.38;;
50851;SDS011;43953;45.508;-122.806;2023-01-10T04:01:35;6.50;;;2.80;;